• Join FlightAware (Why Join?)
  • Login
  • US Flag 
01:01AM EDT


 

Airport Tracker/Info


-or-


 

Live Flight TrackerFlight Track Log ✈ N450S ✈ 29-Apr-2013 ✈ KSKY - KLAF

Flight Track Log - Related Links

Times and Time Zones

All times are in EDT time to prevent confusion due to time zone crossing. See the N450S flight status page for this flight to view local times or setup timezone preferences in your user account.

Time Position Orientation Groundspeed Altitude Reporting Facility
EDT Latitude Longitude Course Direction KTS MPH feet Rate Location/Type
09:41AM 41.4467 -82.6803 295° West 157 181 2,300  Level Cleveland Center
09:42AM 41.4625 -82.7250 295° West 130 150 5,100 1,800 Climbing Cleveland Center
09:43AM 41.4469 -82.7828 250° West 151 174 6,700 1,560 Climbing Cleveland Center
09:44AM 41.4331 -82.8486 254° West 176 203 8,300 1,500 Climbing Cleveland Center
09:45AM 41.4172 -82.9147 252° West 186 214 9,800 1,320 Climbing Cleveland Center
09:46AM 41.4011 -82.9861 253° West 200 230 11,000 780 Climbing Cleveland Center
09:47AM 41.3825 -83.0711 254° West 225 259 11,400 900 Climbing Cleveland Center
09:48AM 41.3622 -83.1478 251° West 230 265 12,900 1,500 Climbing Cleveland Center
09:49AM 41.3458 -83.2247 254° West 224 258 14,400 1,500 Climbing Cleveland Center
09:50AM 41.3272 -83.2986 251° West 224 258 15,900 1,500 Climbing Cleveland Center
09:51AM 41.3108 -83.3753 254° West 224 258 17,500 1,020 Climbing Cleveland Center
09:52AM 41.2922 -83.4575 253° West 224 258 18,000 240 Climbing Cleveland Center
09:53AM 41.2711 -83.5503 253° West 243 280 18,000  Level Cleveland Center
09:54AM 41.2456 -83.6431 250° West 256 295 18,000  Level Cleveland Center
09:55AM 41.2244 -83.7361 253° West 268 308 18,000  Level Cleveland Center
09:56AM 41.2031 -83.8289 253° West 268 308 18,000  Level Cleveland Center
09:57AM 41.1817 -83.9217 253° West 263 303 18,000  Level Cleveland Center
09:58AM 41.1600 -84.0169 253° West 263 303 18,000  Level Cleveland Center
09:59AM 41.1383 -84.1097 253° West 263 303 18,000  Level Cleveland Center
10:01AM 41.1164 -84.1983 252° West 267 307 18,000  Level Chicago Center
10:02AM 41.0928 -84.2914 251° West 267 307 18,000  Level Chicago Center
10:03AM 41.0700 -84.3861 252° West 269 310 18,000  Level Chicago Center
10:04AM 41.0417 -84.5011 252° West 273 314 18,000  Level Chicago Center
10:05AM 41.0189 -84.5953 252° West 270 311 18,000  Level Chicago Center
10:06AM 40.9958 -84.6889 252° West 269 310 18,000  Level Chicago Center
10:07AM 40.9725 -84.7831 252° West 269 310 18,000  Level Chicago Center
10:08AM 40.9486 -84.8764 251° West 268 308 18,000  Level Chicago Center
10:09AM 40.9247 -84.9692 251° West 267 307 18,000  Level Chicago Center
10:10AM 40.9019 -85.0639 252° West 269 310 18,000  Level Chicago Center
10:11AM 40.8739 -85.1756 252° West 268 308 18,000  Level Chicago Center
10:12AM 40.8522 -85.2694 253° West 267 307 18,000  Level Chicago Center
10:13AM 40.8294 -85.3625 252° West 266 306 18,000  Level Chicago Center
10:14AM 40.8075 -85.4564 253° West 267 307 18,000  Level Chicago Center
10:15AM 40.7858 -85.5503 253° West 267 307 18,000  Level Chicago Center
10:16AM 40.7603 -85.6431 250° West 268 308 18,000  Level Chicago Center
10:17AM 40.7286 -85.7319 245° Southwest 269 310 18,000 -720 Level Chicago Center
10:18AM 40.6711 -85.8267 231° Southwest 284 327 16,600 -1,320 Descending Chicago Center
10:19AM 40.6317 -85.9156 240° Southwest 288 331 15,400 -1,320 Descending Chicago Center
10:20AM 40.6092 -86.0194 254° West 286 329 13,900 -1,560 Descending Chicago Center
10:21AM 40.5878 -86.1211 255° West 288 331 12,300 -1,500 Descending Chicago Center
10:22AM 40.5664 -86.2236 255° West 290 334 10,900 -1,440 Descending Chicago Center
10:23AM 40.5458 -86.3239 255° West 280 322 9,500 -1,440 Descending Chicago Center
10:24AM 40.5236 -86.4183 253° West 279 321 8,300 -1,440 Descending Chicago Center
10:25AM 40.5036 -86.5158 255° West 271 312 6,700 -1,620 Descending Chicago Center
10:26AM 40.4814 -86.6128 253° West 267 307 5,100 -1,440 Descending Chicago Center
10:26AM 40.4806 -86.6231 264° West 264 304 4,900 -1,200 Descending Chicago Center
10:27AM 40.4614 -86.7044 253° West 267 307 3,900 -1,200 Descending Chicago Center
10:27AM 40.4581 -86.7158 249° West 266 306 3,700 -1,320 Descending Chicago Center
10:28AM 40.4208 -86.7811 233° Southwest 249 287 2,600 -1,260 Descending Chicago Center
10:28AM 40.4142 -86.8019 247° West 250 288 2,400 -420 Descending Chicago Center
10:29AM 40.4036 -86.8508 254° West 204 235 2,200 -240 Descending Chicago Center
10:29AM 40.3906 -86.8669 223° Southwest 246 283 2,200  Level Chicago Center